createdAt,value
2022-09-02T00:00:01.065Z,55.14
2022-09-02T00:01:01.025Z,54.94
2022-09-02T00:02:01.150Z,54.94
2022-09-02T00:03:01.205Z,54.94
2022-09-02T00:04:01.047Z,55.14
2022-09-02T00:05:01.031Z,54.94
2022-09-02T00:06:00.940Z,55.04
2022-09-02T00:07:00.927Z,55.04
2022-09-02T00:08:00.924Z,55.04
2022-09-02T00:09:00.970Z,55.14
2022-09-02T00:10:00.947Z,54.96
2022-09-02T00:11:00.923Z,54.96
2022-09-02T00:12:00.884Z,55.07
2022-09-02T00:13:00.893Z,55.16
2022-09-02T00:14:00.845Z,55.36
2022-09-02T00:15:00.893Z,55.16
2022-09-02T00:16:00.806Z,55.47
2022-09-02T00:17:01.175Z,54.96
2022-09-02T00:18:00.824Z,55.36
2022-09-02T00:19:00.796Z,55.57
2022-09-02T00:20:00.908Z,55.07
2022-09-02T00:21:00.944Z,55.36
2022-09-02T00:22:00.751Z,55.27
2022-09-02T00:23:00.789Z,55.47
2022-09-02T00:24:00.786Z,55.67
2022-09-02T00:25:00.751Z,55.57
2022-09-02T00:26:00.737Z,55.57
2022-09-02T00:27:00.831Z,55.67
2022-09-02T00:28:00.826Z,55.47
2022-09-02T00:29:00.682Z,56.00
2022-09-02T00:30:00.776Z,55.90
2022-09-02T00:31:00.638Z,55.80
2022-09-02T00:32:00.704Z,55.80
2022-09-02T00:33:00.691Z,55.69
2022-09-02T00:34:00.635Z,55.90
2022-09-02T00:35:00.657Z,56.00
2022-09-02T00:36:00.588Z,55.69
2022-09-02T00:37:00.595Z,55.80
2022-09-02T00:38:00.625Z,55.69
2022-09-02T00:39:00.563Z,55.69
2022-09-02T00:40:00.575Z,55.90
2022-09-02T00:41:00.572Z,55.69
2022-09-02T00:42:00.550Z,55.60
2022-09-02T00:43:00.538Z,55.69
2022-09-02T00:44:00.503Z,55.69
2022-09-02T00:45:00.545Z,55.60
2022-09-02T00:46:00.524Z,56.00
2022-09-02T00:47:00.533Z,56.10
2022-09-02T00:48:00.505Z,56.30
2022-09-02T00:49:00.454Z,55.69
2022-09-02T00:50:00.499Z,56.00
2022-09-02T00:51:00.441Z,56.30
2022-09-02T00:52:00.540Z,55.90
2022-09-02T00:53:00.421Z,56.00
2022-09-02T00:54:00.422Z,56.10
2022-09-02T00:55:00.460Z,56.10
2022-09-02T00:56:00.370Z,56.73
2022-09-02T00:57:00.360Z,56.23
2022-09-02T00:58:00.359Z,56.13
2022-09-02T00:59:00.395Z,56.02
2022-09-02T01:00:00.430Z,56.02
2022-09-02T01:01:00.451Z,56.33
2022-09-02T01:02:00.571Z,56.53
2022-09-02T01:03:00.328Z,56.43
2022-09-02T01:04:00.430Z,56.53
2022-09-02T01:05:00.324Z,56.13
2022-09-02T01:06:00.276Z,56.43
2022-09-02T01:07:00.384Z,56.43
2022-09-02T01:08:00.395Z,56.84
2022-09-02T01:09:00.439Z,56.73
2022-09-02T01:10:00.527Z,56.63
2022-09-02T01:11:00.316Z,56.63
2022-09-02T01:12:00.217Z,56.33
2022-09-02T01:13:00.212Z,56.33
2022-09-02T01:14:00.240Z,56.94
2022-09-02T01:15:00.228Z,56.63
2022-09-02T01:16:00.271Z,56.53
2022-09-02T01:17:00.224Z,56.94
2022-09-02T01:18:00.149Z,56.33
2022-09-02T01:19:00.145Z,56.73
2022-09-02T01:20:00.149Z,56.73
2022-09-02T01:21:00.150Z,56.23
2022-09-02T01:22:00.179Z,56.63
2022-09-02T01:23:00.084Z,56.33
2022-09-02T01:24:00.069Z,56.33
2022-09-02T01:25:00.108Z,56.63
2022-09-02T01:26:00.124Z,56.43
2022-09-02T01:27:00.135Z,56.73
2022-09-02T01:28:00.048Z,56.43
2022-09-02T01:29:00.132Z,56.33
2022-09-02T01:30:00.041Z,56.63
2022-09-02T01:31:00.013Z,56.23
2022-09-02T01:32:00.104Z,56.02
2022-09-02T01:32:59.989Z,55.93
2022-09-02T01:33:59.997Z,56.33
2022-09-02T01:35:00.006Z,56.02
2022-09-02T01:35:59.989Z,56.02
2022-09-02T01:36:59.969Z,56.00
2022-09-02T01:37:59.887Z,56.33
2022-09-02T01:38:59.941Z,56.43
2022-09-02T01:39:59.936Z,56.13
2022-09-02T01:40:59.908Z,56.02
2022-09-02T01:41:59.901Z,56.23
2022-09-02T01:42:59.942Z,56.63
2022-09-02T01:43:59.929Z,56.23
2022-09-02T01:44:59.851Z,56.23
2022-09-02T01:45:59.857Z,56.33
2022-09-02T01:46:59.911Z,56.23
2022-09-02T01:47:59.824Z,56.02
2022-09-02T01:48:59.828Z,56.33
2022-09-02T01:49:59.819Z,56.63
2022-09-02T01:50:59.775Z,56.33
2022-09-02T01:51:59.859Z,56.43
2022-09-02T01:52:59.730Z,56.63
2022-09-02T01:53:59.808Z,56.43
2022-09-02T01:54:59.806Z,56.53
2022-09-02T01:55:59.712Z,56.43
2022-09-02T01:56:59.696Z,56.73
2022-09-02T01:57:59.675Z,56.63
2022-09-02T01:58:59.681Z,56.53
2022-09-02T01:59:59.672Z,56.53
2022-09-02T02:00:59.703Z,56.53
2022-09-02T02:01:59.660Z,56.43
2022-09-02T02:02:59.663Z,56.53
2022-09-02T02:03:59.624Z,56.53
2022-09-02T02:04:59.643Z,56.53
2022-09-02T02:05:59.649Z,56.84
2022-09-02T02:06:59.600Z,56.53
2022-09-02T02:07:59.644Z,56.23
2022-09-02T02:08:59.704Z,56.43
2022-09-02T02:09:59.589Z,56.53
2022-09-02T02:10:59.690Z,56.94
2022-09-02T02:11:59.542Z,56.43
2022-09-02T02:12:59.504Z,56.73
2022-09-02T02:13:59.506Z,56.73
2022-09-02T02:14:59.564Z,56.84
2022-09-02T02:15:59.570Z,56.63
2022-09-02T02:16:59.468Z,56.73
2022-09-02T02:17:59.452Z,56.73
2022-09-02T02:18:59.511Z,56.84
2022-09-02T02:19:59.543Z,57.24
2022-09-02T02:20:59.467Z,56.94
2022-09-02T02:21:59.434Z,57.24
2022-09-02T02:22:59.494Z,57.34
2022-09-02T02:23:59.472Z,56.94
2022-09-02T02:24:59.377Z,56.94
2022-09-02T02:25:59.414Z,56.84
2022-09-02T02:26:59.354Z,56.73
2022-09-02T02:27:59.367Z,56.84
2022-09-02T02:28:59.357Z,56.94
2022-09-02T02:29:59.355Z,57.14
2022-09-02T02:30:59.433Z,57.04
2022-09-02T02:31:59.347Z,57.14
2022-09-02T02:32:59.292Z,57.04
2022-09-02T02:33:59.334Z,56.63
2022-09-02T02:34:59.283Z,57.04
2022-09-02T02:35:59.354Z,57.14
2022-09-02T02:36:59.329Z,57.04
2022-09-02T02:37:59.226Z,57.24
2022-09-02T02:38:59.215Z,56.84
2022-09-02T02:39:59.257Z,56.53
2022-09-02T02:40:59.303Z,57.34
2022-09-02T02:41:59.207Z,56.73
2022-09-02T02:42:59.200Z,56.63
2022-09-02T02:43:59.182Z,56.84
2022-09-02T02:44:59.176Z,57.24
2022-09-02T02:45:59.631Z,56.84
2022-09-02T02:46:59.191Z,57.14
2022-09-02T02:47:59.144Z,57.04
2022-09-02T02:48:59.138Z,56.94
2022-09-02T02:49:59.120Z,56.94
2022-09-02T02:50:59.172Z,56.94
2022-09-02T02:51:59.094Z,57.65
2022-09-02T02:52:59.104Z,56.94
2022-09-02T02:53:59.190Z,57.44
2022-09-02T02:54:59.053Z,57.65
2022-09-02T02:55:59.118Z,57.54
2022-09-02T02:56:59.022Z,57.24
2022-09-02T02:57:59.063Z,57.54
2022-09-02T02:58:59.039Z,57.14
2022-09-02T02:59:59.036Z,57.34
2022-09-02T03:00:59.109Z,57.65
2022-09-02T03:01:59.095Z,57.54
2022-09-02T03:02:59.050Z,57.54
2022-09-02T03:03:58.956Z,57.54
2022-09-02T03:04:58.971Z,57.85
2022-09-02T03:05:58.989Z,57.44
2022-09-02T03:06:58.917Z,57.95
2022-09-02T03:07:58.943Z,57.54
2022-09-02T03:08:58.911Z,57.54
2022-09-02T03:09:58.873Z,57.65
2022-09-02T03:10:58.927Z,57.75
2022-09-02T03:11:58.860Z,58.15
2022-09-02T03:12:58.935Z,57.95
2022-09-02T03:13:58.845Z,57.65
2022-09-02T03:14:58.865Z,58.45
2022-09-02T03:15:58.934Z,58.05
2022-09-02T03:16:58.805Z,58.15
2022-09-02T03:17:58.838Z,57.85
2022-09-02T03:18:58.813Z,58.05
2022-09-02T03:19:58.872Z,58.45
2022-09-02T03:20:58.820Z,57.85
2022-09-02T03:21:58.725Z,57.85
2022-09-02T03:22:58.736Z,57.95
2022-09-02T03:23:58.771Z,58.25
2022-09-02T03:24:58.709Z,57.95
2022-09-02T03:25:58.766Z,58.05
2022-09-02T03:26:58.697Z,57.65
2022-09-02T03:27:58.704Z,58.05
2022-09-02T03:28:58.690Z,57.95
2022-09-02T03:29:58.729Z,57.75
2022-09-02T03:30:58.764Z,58.15
2022-09-02T03:32:01.537Z,58.25
2022-09-02T03:33:03.625Z,58.56
2022-09-02T03:33:58.669Z,58.05
2022-09-02T03:34:58.613Z,58.36
2022-09-02T03:35:58.642Z,58.05
2022-09-02T03:36:58.575Z,58.25
2022-09-02T03:37:58.590Z,58.15
2022-09-02T03:38:58.645Z,57.75
2022-09-02T03:39:58.586Z,58.56
2022-09-02T03:40:58.687Z,58.65
2022-09-02T03:41:58.557Z,58.36
2022-09-02T03:43:00.329Z,58.05
2022-09-02T03:43:58.514Z,58.56
2022-09-02T03:44:58.888Z,58.38
2022-09-02T03:45:58.509Z,58.28
2022-09-02T03:46:58.498Z,58.38
2022-09-02T03:47:58.632Z,58.36
2022-09-02T03:48:58.458Z,58.38
2022-09-02T03:49:58.465Z,58.48
2022-09-02T03:50:58.442Z,58.78
2022-09-02T03:51:58.440Z,58.48
2022-09-02T03:52:58.432Z,58.38
2022-09-02T03:53:58.418Z,58.69
2022-09-02T03:54:58.397Z,58.78
2022-09-02T03:55:58.463Z,58.58
2022-09-02T03:56:58.365Z,58.78
2022-09-02T03:57:58.371Z,58.58
2022-09-02T03:58:58.365Z,59.49
2022-09-02T03:59:58.488Z,59.59
2022-09-02T04:00:58.479Z,59.19
2022-09-02T04:01:58.569Z,58.99
2022-09-02T04:02:58.353Z,59.59
2022-09-02T04:03:58.349Z,59.90
2022-09-02T04:04:58.282Z,59.72
2022-09-02T04:05:58.305Z,59.63
2022-09-02T04:06:58.278Z,59.72
2022-09-02T04:07:58.933Z,59.32
2022-09-02T04:08:58.349Z,59.52
2022-09-02T04:09:58.321Z,60.03
2022-09-02T04:10:58.289Z,59.52
2022-09-02T04:11:58.226Z,59.83
2022-09-02T04:12:58.226Z,59.83
2022-09-02T04:13:58.220Z,59.83
2022-09-02T04:14:58.172Z,59.72
2022-09-02T04:16:01.686Z,59.72
2022-09-02T04:16:58.238Z,60.03
2022-09-02T04:17:58.098Z,60.03
2022-09-02T04:18:58.126Z,60.03
2022-09-02T04:19:58.126Z,59.72
2022-09-02T04:20:58.115Z,59.52
2022-09-02T04:21:58.130Z,60.03
2022-09-02T04:22:58.159Z,59.72
2022-09-02T04:23:58.058Z,60.13
2022-09-02T04:24:58.052Z,60.03
2022-09-02T04:25:58.060Z,60.33
2022-09-02T04:27:03.352Z,60.33
2022-09-02T04:27:58.065Z,60.16
2022-09-02T04:28:57.978Z,60.16
2022-09-02T04:29:58.019Z,60.16
2022-09-02T04:30:58.048Z,60.16
2022-09-02T04:31:57.987Z,60.36
2022-09-02T04:32:58.024Z,60.66
2022-09-02T04:33:57.939Z,60.86
2022-09-02T04:34:57.897Z,60.66
2022-09-02T04:35:57.901Z,60.86
2022-09-02T04:36:57.899Z,61.07
2022-09-02T04:37:57.918Z,61.17
2022-09-02T04:38:57.879Z,60.86
2022-09-02T04:39:57.910Z,61.07
2022-09-02T04:40:57.896Z,61.27
2022-09-02T04:41:57.908Z,61.17
2022-09-02T04:42:57.925Z,61.17
2022-09-02T04:43:57.830Z,60.86
2022-09-02T04:44:57.797Z,61.20
2022-09-02T04:45:57.940Z,61.60
2022-09-02T04:46:57.790Z,61.60
2022-09-02T04:47:58.358Z,61.80
2022-09-02T04:48:57.753Z,61.51
2022-09-02T04:49:57.776Z,61.51
2022-09-02T04:50:57.786Z,61.80
2022-09-02T04:51:57.786Z,62.01
2022-09-02T04:52:57.744Z,61.91
2022-09-02T04:53:57.882Z,61.91
2022-09-02T04:54:57.701Z,62.21
2022-09-02T04:55:58.308Z,61.60
2022-09-02T04:56:57.659Z,61.51
2022-09-02T04:57:57.753Z,62.21
2022-09-02T04:58:57.778Z,62.11
2022-09-02T04:59:57.711Z,62.01
2022-09-02T05:00:57.810Z,62.01
2022-09-02T05:01:57.700Z,62.11
2022-09-02T05:02:57.687Z,62.41
2022-09-02T05:03:57.716Z,62.85
2022-09-02T05:04:57.615Z,62.21
2022-09-02T05:05:57.625Z,62.24
2022-09-02T05:06:57.997Z,62.62
2022-09-02T05:07:57.598Z,62.62
2022-09-02T05:08:58.097Z,62.52
2022-09-02T05:09:57.517Z,62.65
2022-09-02T05:10:57.489Z,62.72
2022-09-02T05:11:57.517Z,63.02
2022-09-02T05:12:57.470Z,62.45
2022-09-02T05:13:57.453Z,63.06
2022-09-02T05:14:57.459Z,63.06
2022-09-02T05:15:58.400Z,62.95
2022-09-02T05:16:57.415Z,62.95
2022-09-02T05:17:57.406Z,62.75
2022-09-02T05:18:57.410Z,63.15
2022-09-02T05:19:57.415Z,63.46
2022-09-02T05:20:57.357Z,63.06
2022-09-02T05:21:57.371Z,63.35
2022-09-02T05:22:57.334Z,63.35
2022-09-02T05:23:57.327Z,63.26
2022-09-02T05:24:57.327Z,63.06
2022-09-02T05:25:57.328Z,63.26
2022-09-02T05:26:57.319Z,63.35
2022-09-02T05:27:57.297Z,62.95
2022-09-02T05:28:57.288Z,63.56
2022-09-02T05:29:57.272Z,63.96
2022-09-02T05:30:57.601Z,63.66
2022-09-02T05:31:57.262Z,63.86
2022-09-02T05:32:57.247Z,63.46
2022-09-02T05:33:57.249Z,63.46
2022-09-02T05:34:57.452Z,63.35
2022-09-02T05:35:57.233Z,63.35
2022-09-02T05:36:57.239Z,63.35
2022-09-02T05:38:00.750Z,64.04
2022-09-02T05:38:57.187Z,63.53
2022-09-02T05:39:57.174Z,63.63
2022-09-02T05:40:57.239Z,64.04
2022-09-02T05:41:57.202Z,63.93
2022-09-02T05:42:57.256Z,63.83
2022-09-02T05:43:57.237Z,63.73
2022-09-02T05:44:57.110Z,63.53
2022-09-02T05:45:57.257Z,63.43
2022-09-02T05:46:57.220Z,63.53
2022-09-02T05:47:57.122Z,63.23
2022-09-02T05:48:57.102Z,63.63
2022-09-02T05:49:57.069Z,63.23
2022-09-02T05:50:57.608Z,63.63
2022-09-02T05:51:57.080Z,64.24
2022-09-02T05:52:57.162Z,63.93
2022-09-02T05:53:57.041Z,63.63
2022-09-02T05:54:57.026Z,63.63
2022-09-02T05:55:57.028Z,63.90
2022-09-02T05:56:56.952Z,63.81
2022-09-02T05:57:56.963Z,63.70
2022-09-02T05:58:56.943Z,63.20
2022-09-02T05:59:56.965Z,63.09
2022-09-02T06:00:56.939Z,63.40
2022-09-02T06:01:57.013Z,63.20
2022-09-02T06:02:56.944Z,63.98
2022-09-02T06:03:56.903Z,62.86
2022-09-02T06:04:56.859Z,63.87
2022-09-02T06:05:56.918Z,63.07
2022-09-02T06:06:56.841Z,63.57
2022-09-02T06:07:56.840Z,62.66
2022-09-02T06:08:56.858Z,63.37
2022-09-02T06:09:56.812Z,63.27
2022-09-02T06:10:56.828Z,62.96
2022-09-02T06:11:56.795Z,63.13
2022-09-02T06:12:56.776Z,63.54
2022-09-02T06:13:56.849Z,63.44
2022-09-02T06:14:56.769Z,63.13
2022-09-02T06:15:56.797Z,63.04
2022-09-02T06:16:56.740Z,62.73
2022-09-02T06:17:56.727Z,62.40
2022-09-02T06:18:56.725Z,62.90
2022-09-02T06:19:56.694Z,61.99
2022-09-02T06:20:56.731Z,62.60
2022-09-02T06:21:56.674Z,61.99
2022-09-02T06:22:56.665Z,62.77
2022-09-02T06:23:56.646Z,62.47
2022-09-02T06:24:56.650Z,62.07
2022-09-02T06:25:56.674Z,62.47
2022-09-02T06:26:56.623Z,62.57
2022-09-02T06:27:56.601Z,62.64
2022-09-02T06:28:56.626Z,62.24
2022-09-02T06:29:56.576Z,62.14
2022-09-02T06:30:56.682Z,62.14
2022-09-02T06:31:56.556Z,61.13
2022-09-02T06:32:56.555Z,61.83
2022-09-02T06:33:56.531Z,62.34
2022-09-02T06:34:56.558Z,61.91
2022-09-02T06:35:56.535Z,61.40
2022-09-02T06:36:56.505Z,61.80
2022-09-02T06:37:56.491Z,61.80
2022-09-02T06:38:56.479Z,61.37
2022-09-02T06:39:56.470Z,61.07
2022-09-02T06:40:56.480Z,61.37
2022-09-02T06:41:56.448Z,61.98
2022-09-02T06:42:56.458Z,61.27
2022-09-02T06:43:56.484Z,61.65
2022-09-02T06:44:56.432Z,60.53
2022-09-02T06:45:56.611Z,60.64
2022-09-02T06:46:56.405Z,61.14
2022-09-02T06:47:56.382Z,61.24
2022-09-02T06:48:56.377Z,60.10
2022-09-02T06:49:56.360Z,59.80
2022-09-02T06:50:56.390Z,60.21
2022-09-02T06:51:56.338Z,59.90
2022-09-02T06:52:56.355Z,59.90
2022-09-02T06:53:56.328Z,60.17
2022-09-02T06:54:56.338Z,59.57
2022-09-02T06:55:56.320Z,59.88
2022-09-02T06:56:56.294Z,59.27
2022-09-02T06:57:56.268Z,59.27
2022-09-02T06:58:56.275Z,59.17
2022-09-02T07:00:02.216Z,59.14
2022-09-02T07:00:56.271Z,59.04
2022-09-02T07:01:56.417Z,59.84
2022-09-02T07:02:56.221Z,59.75
2022-09-02T07:03:56.211Z,59.11
2022-09-02T07:04:57.624Z,58.31
2022-09-02T07:05:56.207Z,58.41
2022-09-02T07:06:56.196Z,58.31
2022-09-02T07:07:56.161Z,58.21
2022-09-02T07:08:56.149Z,58.07
2022-09-02T07:09:56.142Z,57.98
2022-09-02T07:10:56.133Z,57.78
2022-09-02T07:11:56.117Z,58.15
2022-09-02T07:12:56.132Z,57.85
2022-09-02T07:13:56.100Z,57.45
2022-09-02T07:14:56.080Z,57.35
2022-09-02T07:15:56.074Z,57.35
2022-09-02T07:16:56.101Z,57.04
2022-09-02T07:17:56.072Z,56.71
2022-09-02T07:18:56.053Z,57.02
2022-09-02T07:19:56.045Z,56.82
2022-09-02T07:20:56.040Z,56.11
2022-09-02T07:21:56.019Z,56.82
2022-09-02T07:22:56.016Z,57.52
2022-09-02T07:23:55.998Z,57.82
2022-09-02T07:24:56.009Z,57.52
2022-09-02T07:25:55.947Z,58.02
2022-09-02T07:26:56.083Z,58.00
2022-09-02T07:27:55.935Z,57.70
2022-09-02T07:28:55.961Z,56.79
2022-09-02T07:29:55.924Z,55.79
2022-09-02T07:30:59.605Z,56.89
2022-09-02T07:31:55.888Z,56.66
2022-09-02T07:32:55.881Z,56.56
2022-09-02T07:33:55.879Z,56.86
2022-09-02T07:34:55.846Z,56.26
2022-09-02T07:35:55.859Z,55.26
2022-09-02T07:36:59.072Z,56.36
2022-09-02T07:37:55.843Z,55.55
2022-09-02T07:38:55.841Z,55.26
2022-09-02T07:39:55.796Z,56.36
2022-09-02T07:40:57.016Z,56.63
2022-09-02T07:41:55.812Z,55.43
2022-09-02T07:43:59.482Z,54.63
2022-09-02T07:44:55.759Z,54.53
2022-09-02T07:45:55.769Z,54.72
2022-09-02T07:46:55.731Z,54.22
2022-09-02T07:47:55.736Z,55.33
2022-09-02T07:48:55.736Z,55.13
2022-09-02T07:50:55.693Z,54.90
2022-09-02T07:51:55.660Z,54.80
2022-09-02T07:52:55.698Z,55.00
2022-09-02T07:53:55.940Z,55.38
2022-09-02T07:54:55.638Z,54.38
2022-09-02T07:55:55.627Z,54.47
2022-09-02T07:56:55.621Z,54.35
2022-09-02T07:57:55.740Z,54.25
2022-09-02T07:58:55.654Z,53.75
2022-09-02T07:59:55.611Z,52.94
2022-09-02T08:00:55.630Z,52.84
2022-09-02T08:01:55.572Z,53.34
2022-09-02T08:02:55.817Z,53.75
2022-09-02T08:03:55.548Z,53.45
2022-09-02T08:04:55.550Z,54.02
2022-09-02T08:05:55.531Z,53.42
2022-09-02T08:06:55.513Z,52.52
2022-09-02T08:07:55.496Z,53.22
2022-09-02T08:08:55.496Z,53.82
2022-09-02T08:09:55.473Z,53.00
2022-09-02T08:10:55.566Z,52.29
2022-09-02T08:11:55.450Z,52.39
2022-09-02T08:12:55.456Z,52.89
2022-09-02T08:13:55.445Z,52.97
2022-09-02T08:14:55.444Z,52.77
2022-09-02T08:15:55.405Z,51.87
2022-09-02T08:16:55.495Z,51.67
2022-09-02T08:17:55.391Z,51.87
2022-09-02T08:18:55.369Z,51.46
2022-09-02T08:19:55.378Z,51.77
2022-09-02T08:20:55.351Z,52.47
2022-09-02T08:21:55.363Z,52.67
2022-09-02T08:23:05.264Z,52.17
2022-09-02T08:23:55.313Z,51.77
2022-09-02T08:24:55.294Z,52.37
2022-09-02T08:25:55.313Z,51.77
2022-09-02T08:26:55.286Z,53.44
2022-09-02T08:28:55.291Z,51.04
2022-09-02T08:29:55.252Z,51.14
2022-09-02T08:30:55.240Z,51.74
2022-09-02T08:31:55.273Z,50.54
2022-09-02T08:32:55.201Z,51.04
2022-09-02T08:33:55.229Z,50.94
2022-09-02T08:34:55.201Z,51.32
2022-09-02T08:35:55.198Z,51.62
2022-09-02T08:36:56.567Z,50.82
2022-09-02T08:37:55.180Z,50.99
2022-09-02T08:38:55.171Z,50.62
2022-09-02T08:39:55.147Z,51.50
2022-09-02T08:40:55.181Z,50.89
2022-09-02T08:41:55.163Z,50.59
2022-09-02T08:42:55.096Z,50.70
2022-09-02T08:43:55.135Z,50.39
2022-09-02T08:44:55.082Z,50.37
2022-09-02T08:45:55.092Z,50.77
2022-09-02T08:46:55.071Z,51.45
2022-09-02T08:47:55.053Z,50.45
2022-09-02T08:48:55.063Z,50.24
2022-09-02T08:49:55.031Z,50.74
2022-09-02T08:50:55.105Z,50.32
2022-09-02T08:51:55.000Z,50.22
2022-09-02T08:52:55.035Z,49.92
2022-09-02T08:53:54.996Z,49.12
2022-09-02T08:54:54.985Z,49.12
2022-09-02T08:55:54.977Z,49.62
2022-09-02T08:56:54.951Z,49.90
2022-09-02T08:57:54.960Z,49.40
2022-09-02T08:58:56.527Z,50.70
2022-09-02T08:59:54.938Z,48.90
2022-09-02T09:00:54.948Z,48.90
2022-09-02T09:01:54.982Z,48.30
2022-09-02T09:02:54.867Z,50.30
2022-09-02T09:03:54.859Z,49.90
2022-09-02T09:04:54.908Z,48.40
2022-09-02T09:05:54.858Z,49.20
2022-09-02T09:06:54.830Z,50.30
2022-09-02T09:07:54.914Z,48.78
2022-09-02T09:08:54.886Z,49.77
2022-09-02T09:09:54.842Z,49.90
2022-09-02T09:10:54.885Z,48.88
2022-09-02T09:11:54.859Z,49.68
2022-09-02T09:12:54.762Z,48.97
2022-09-02T09:13:54.794Z,48.28
2022-09-02T09:14:54.773Z,48.65
2022-09-02T09:15:54.796Z,49.95
2022-09-02T09:16:54.868Z,48.05
2022-09-02T09:17:54.752Z,48.46
2022-09-02T09:18:54.761Z,48.63
2022-09-02T09:19:54.750Z,48.23
2022-09-02T09:20:54.777Z,47.24
2022-09-02T09:21:54.745Z,48.73
2022-09-02T09:22:54.686Z,49.83
2022-09-02T09:23:54.653Z,48.91
2022-09-02T09:24:54.637Z,49.30
2022-09-02T09:25:54.651Z,47.89
2022-09-02T09:26:54.618Z,46.89
2022-09-02T09:27:54.620Z,48.79
2022-09-02T09:28:54.731Z,48.49
2022-09-02T09:29:54.667Z,48.07
2022-09-02T09:30:54.641Z,46.39
2022-09-02T09:31:54.734Z,47.99
2022-09-02T09:32:54.585Z,46.79
2022-09-02T09:33:54.575Z,47.17
2022-09-02T09:34:54.578Z,47.96
2022-09-02T09:35:54.657Z,47.66
2022-09-02T09:36:54.576Z,47.84
2022-09-02T09:37:54.588Z,47.94
2022-09-02T09:38:54.526Z,47.05
2022-09-02T09:39:54.523Z,46.65
2022-09-02T09:40:54.570Z,47.42
2022-09-02T09:41:54.509Z,45.63
2022-09-02T09:42:54.501Z,44.85
2022-09-02T09:43:54.531Z,46.47
2022-09-02T09:44:54.449Z,46.77
2022-09-02T09:45:54.550Z,48.56
2022-09-02T09:46:54.459Z,47.44
2022-09-02T09:47:54.743Z,47.82
2022-09-02T09:48:54.409Z,47.22
2022-09-02T09:49:54.446Z,44.64
2022-09-02T09:50:54.393Z,47.42
2022-09-02T09:51:54.414Z,47.62
2022-09-02T09:52:54.402Z,45.73
2022-09-02T09:53:54.396Z,45.43
2022-09-02T09:54:54.360Z,47.13
2022-09-02T09:55:54.364Z,44.71
2022-09-02T09:56:54.336Z,45.31
2022-09-02T09:57:54.374Z,46.42
2022-09-02T09:58:54.325Z,45.51
2022-09-02T09:59:54.399Z,47.80
2022-09-02T10:00:54.321Z,46.58
2022-09-02T10:01:54.299Z,45.47
2022-09-02T10:02:54.222Z,46.46
2022-09-02T10:03:54.212Z,45.45
2022-09-02T10:04:54.205Z,46.44
2022-09-02T10:05:54.217Z,44.85
2022-09-02T10:06:54.222Z,43.64
2022-09-02T10:07:54.191Z,43.46
2022-09-02T10:08:54.162Z,45.45
2022-09-02T10:09:54.215Z,45.25
2022-09-02T10:10:54.160Z,46.24
2022-09-02T10:11:54.154Z,43.16
2022-09-02T10:12:54.120Z,43.06
2022-09-02T10:13:54.135Z,43.08
2022-09-02T10:14:54.153Z,43.40
2022-09-02T10:15:54.132Z,45.89
2022-09-02T10:16:54.116Z,43.13
2022-09-02T10:17:54.101Z,45.14
2022-09-02T10:18:54.055Z,45.23
2022-09-02T10:19:54.066Z,45.73
2022-09-02T10:21:54.035Z,46.33
2022-09-02T10:22:58.671Z,45.33
2022-09-02T10:23:53.997Z,47.70
2022-09-02T10:24:54.008Z,47.57
2022-09-02T10:25:54.002Z,47.85
2022-09-02T10:26:53.995Z,46.93
2022-09-02T10:27:53.968Z,45.05
2022-09-02T10:28:53.987Z,42.17
2022-09-02T10:29:53.935Z,46.93
2022-09-02T10:30:53.954Z,43.85
2022-09-02T10:31:53.986Z,42.69
2022-09-02T10:32:53.901Z,47.53
2022-09-02T10:33:53.896Z,44.55
2022-09-02T10:34:53.928Z,43.34
2022-09-02T10:35:53.877Z,45.40
2022-09-02T10:36:53.870Z,44.60
2022-09-02T10:37:53.867Z,43.52
2022-09-02T10:38:53.844Z,45.28
2022-09-02T10:39:53.832Z,40.96
2022-09-02T10:40:53.889Z,42.94
2022-09-02T10:41:53.819Z,43.14
2022-09-02T10:42:53.790Z,45.23
2022-09-02T10:43:56.789Z,43.22
2022-09-02T10:44:57.042Z,43.71
2022-09-02T10:45:53.811Z,43.12
2022-09-02T10:46:53.978Z,42.13
2022-09-02T10:47:53.768Z,41.93
2022-09-02T10:48:53.731Z,41.73
2022-09-02T10:49:53.789Z,43.60
2022-09-02T10:50:53.703Z,42.71
2022-09-02T10:51:53.737Z,42.58
2022-09-02T10:52:53.701Z,41.49
2022-09-02T10:53:53.685Z,41.49
2022-09-02T10:54:53.659Z,40.70
2022-09-02T10:55:53.688Z,42.49
2022-09-02T10:56:53.640Z,42.09
2022-09-02T10:57:53.682Z,43.65
2022-09-02T10:58:53.673Z,43.26
2022-09-02T10:59:53.613Z,43.93
2022-09-02T11:00:53.627Z,42.13
2022-09-02T11:01:53.603Z,42.03
2022-09-02T11:02:53.883Z,40.66
2022-09-02T11:03:53.731Z,39.89
2022-09-02T11:04:54.882Z,42.44
2022-09-02T11:05:53.543Z,40.96
2022-09-02T11:07:02.427Z,39.95
2022-09-02T11:07:53.539Z,40.05
2022-09-02T11:08:53.538Z,40.17
2022-09-02T11:09:53.495Z,41.08
2022-09-02T11:10:53.481Z,42.07
2022-09-02T11:11:55.927Z,41.57
2022-09-02T11:12:53.457Z,42.96
2022-09-02T11:13:53.460Z,41.87
2022-09-02T11:14:53.467Z,41.06
2022-09-02T11:15:53.489Z,42.64
2022-09-02T11:16:53.435Z,40.94
2022-09-02T11:17:53.399Z,40.74
2022-09-02T11:18:53.412Z,41.33
2022-09-02T11:19:53.407Z,42.11
2022-09-02T11:20:53.389Z,39.93
2022-09-02T11:21:53.371Z,38.15
2022-09-02T11:22:54.310Z,40.62
2022-09-02T11:23:53.339Z,41.71
2022-09-02T11:24:53.365Z,40.50
2022-09-02T11:25:53.353Z,38.33
2022-09-02T11:26:53.337Z,39.04
2022-09-02T11:27:53.308Z,41.81
2022-09-02T11:28:53.319Z,40.80
2022-09-02T11:29:53.305Z,41.20
2022-09-02T11:30:53.268Z,39.11
2022-09-02T11:31:53.306Z,38.90
2022-09-02T11:32:53.250Z,42.16
2022-09-02T11:33:53.307Z,40.78
2022-09-02T11:34:53.225Z,40.37
2022-09-02T11:35:53.232Z,39.78
2022-09-02T11:36:53.242Z,39.28
2022-09-02T11:37:53.517Z,40.05
2022-09-02T11:38:53.209Z,39.06
2022-09-02T11:40:02.304Z,38.69
2022-09-02T11:41:53.216Z,38.92
2022-09-02T11:42:53.135Z,39.91
2022-09-02T11:43:53.207Z,37.26
2022-09-02T11:44:53.314Z,37.87
2022-09-02T11:45:53.167Z,41.04
2022-09-02T11:46:53.146Z,40.13
2022-09-02T11:47:53.113Z,40.92
2022-09-02T11:48:53.062Z,42.29
2022-09-02T11:49:53.103Z,39.30
2022-09-02T11:50:53.057Z,34.97
2022-09-02T11:51:53.037Z,35.98
2022-09-02T11:52:53.052Z,37.77
2022-09-02T11:53:54.968Z,37.00
2022-09-02T11:54:53.008Z,37.51
2022-09-02T11:55:53.031Z,38.21
2022-09-02T11:56:52.984Z,38.13
2022-09-02T11:57:52.975Z,38.92
2022-09-02T11:58:52.974Z,40.82
2022-09-02T11:59:52.945Z,40.52
2022-09-02T12:00:52.939Z,41.41
2022-09-02T12:01:52.946Z,40.62
2022-09-02T12:02:52.914Z,40.12
2022-09-02T12:04:27.564Z,41.20
2022-09-02T12:05:01.855Z,38.90
2022-09-02T12:05:52.950Z,40.66
2022-09-02T12:06:52.922Z,39.73
2022-09-02T12:07:52.886Z,35.86
2022-09-02T12:08:52.851Z,35.55
2022-09-02T12:09:52.863Z,33.87
2022-09-02T12:10:52.849Z,34.58
2022-09-02T12:11:52.825Z,33.98
2022-09-02T12:12:52.827Z,36.59
2022-09-02T12:13:52.823Z,37.98
2022-09-02T12:14:52.793Z,40.64
2022-09-02T12:15:52.785Z,38.47
2022-09-02T12:16:52.766Z,37.38
2022-09-02T12:17:52.741Z,38.39
2022-09-02T12:18:52.765Z,38.78
2022-09-02T12:19:52.725Z,39.06
2022-09-02T12:20:52.710Z,39.04
2022-09-02T12:21:52.721Z,38.17
2022-09-02T12:22:52.696Z,37.99
2022-09-02T12:23:52.704Z,37.02
2022-09-02T12:24:52.707Z,38.60
2022-09-02T12:25:52.681Z,39.40
2022-09-02T12:26:52.663Z,40.07
2022-09-02T12:27:52.649Z,37.79
2022-09-02T12:28:52.635Z,36.90
2022-09-02T12:29:52.629Z,37.28
2022-09-02T12:30:52.617Z,38.47
2022-09-02T12:31:52.622Z,36.88
2022-09-02T12:32:52.604Z,36.69
2022-09-02T12:33:52.569Z,37.00
2022-09-02T12:34:52.575Z,39.37
2022-09-02T12:35:52.589Z,39.48
2022-09-02T12:36:52.540Z,40.17
2022-09-02T12:37:53.954Z,39.69
2022-09-02T12:38:52.537Z,40.09
2022-09-02T12:39:52.527Z,38.80
2022-09-02T12:40:52.548Z,40.19
2022-09-02T12:41:52.518Z,41.08
2022-09-02T12:42:52.480Z,42.76
2022-09-02T12:43:52.461Z,41.06
2022-09-02T12:44:52.457Z,41.08
2022-09-02T12:45:52.468Z,41.28
2022-09-02T12:46:52.539Z,40.48
2022-09-02T12:47:52.432Z,39.28
2022-09-02T12:48:52.428Z,36.71
2022-09-02T12:49:52.422Z,38.39
2022-09-02T12:50:52.394Z,38.98
2022-09-02T12:51:52.381Z,39.65
2022-09-02T12:52:52.427Z,38.57
2022-09-02T12:53:52.370Z,38.17
2022-09-02T12:54:52.351Z,40.15
2022-09-02T12:55:52.335Z,38.76
2022-09-02T12:56:52.316Z,37.98